createdAt,value
2023-03-22T00:01:46.286Z,24.88
2023-03-22T00:04:12.912Z,24.90
2023-03-22T00:06:39.664Z,24.20
2023-03-22T00:09:06.128Z,26.30
2023-03-22T00:11:32.517Z,26.58
2023-03-22T00:13:59.135Z,27.08
2023-03-22T00:16:25.557Z,24.98
2023-03-22T00:18:52.274Z,25.55
2023-03-22T00:21:19.047Z,26.15
2023-03-22T00:23:45.555Z,25.83
2023-03-22T00:26:13.823Z,26.38
2023-03-22T00:28:40.878Z,26.38
2023-03-22T00:31:07.979Z,26.95
2023-03-22T00:33:35.326Z,25.00
2023-03-22T00:36:05.571Z,24.92
2023-03-22T00:38:42.869Z,22.88
2023-03-22T00:41:18.761Z,25.30
2023-03-22T00:43:46.390Z,23.60
2023-03-22T00:46:14.131Z,24.42
2023-03-22T00:48:40.847Z,23.85
2023-03-22T00:51:08.265Z,23.05
2023-03-22T00:53:36.440Z,24.00
2023-03-22T00:56:04.716Z,23.13
2023-03-22T00:58:31.383Z,21.27
2023-03-22T01:00:57.944Z,23.35
2023-03-22T01:03:24.688Z,22.48
2023-03-22T01:05:55.538Z,24.15
2023-03-22T01:08:23.239Z,24.33
2023-03-22T01:10:50.242Z,22.25
2023-03-22T01:13:18.066Z,22.58
2023-03-22T01:15:44.927Z,22.98
2023-03-22T01:18:11.422Z,23.20
2023-03-22T01:20:38.336Z,22.30
2023-03-22T01:23:04.998Z,20.95
2023-03-22T01:25:31.501Z,23.10
2023-03-22T01:27:57.934Z,21.48
2023-03-22T01:30:24.510Z,24.40
2023-03-22T01:32:51.305Z,23.25
2023-03-22T01:35:17.799Z,22.67
2023-03-22T01:37:44.170Z,21.90
2023-03-22T01:40:12.381Z,21.40
2023-03-22T01:42:38.921Z,23.65
2023-03-22T01:45:14.656Z,20.42
2023-03-22T01:47:54.714Z,20.50
2023-03-22T01:50:22.211Z,25.20
2023-03-22T01:52:50.834Z,22.15
2023-03-22T01:55:22.658Z,21.50
2023-03-22T01:57:50.604Z,22.90
2023-03-22T02:00:18.860Z,22.42
2023-03-22T02:02:48.515Z,23.55
2023-03-22T02:05:15.564Z,23.38
2023-03-22T02:07:43.157Z,24.60
2023-03-22T02:10:21.928Z,23.52
2023-03-22T02:13:03.558Z,22.80
2023-03-22T02:15:34.080Z,23.95
2023-03-22T02:18:11.363Z,23.30
2023-03-22T02:20:47.121Z,23.08
2023-03-22T02:23:45.230Z,22.75
2023-03-22T02:26:29.436Z,23.65
2023-03-22T02:29:08.125Z,23.27
2023-03-22T02:32:08.587Z,23.80
2023-03-22T02:34:53.989Z,22.80
2023-03-22T02:37:57.923Z,22.35
2023-03-22T02:40:33.337Z,21.52
2023-03-22T02:43:12.853Z,23.90
2023-03-22T02:45:51.698Z,22.27
2023-03-22T02:48:49.667Z,22.13
2023-03-22T02:51:23.038Z,21.42
2023-03-22T02:53:57.900Z,21.73
2023-03-22T02:57:05.281Z,20.40
2023-03-22T02:59:33.986Z,21.92
2023-03-22T03:02:04.112Z,20.40
2023-03-22T03:04:37.866Z,21.45
2023-03-22T03:07:09.412Z,20.08
2023-03-22T03:09:37.316Z,20.67
2023-03-22T03:12:09.524Z,21.63
2023-03-22T03:14:35.915Z,20.67
2023-03-22T03:17:21.778Z,22.83
2023-03-22T03:20:13.213Z,21.77
2023-03-22T03:23:03.787Z,21.33
2023-03-22T03:26:08.282Z,20.88
2023-03-22T03:28:44.848Z,23.20
2023-03-22T03:31:23.445Z,20.65
2023-03-22T03:34:08.099Z,20.75
2023-03-22T03:36:37.910Z,22.25
2023-03-22T03:39:09.853Z,23.52
2023-03-22T03:41:37.719Z,20.90
2023-03-22T03:44:05.150Z,23.10
2023-03-22T03:46:31.772Z,24.15
2023-03-22T03:48:59.320Z,21.90
2023-03-22T03:51:28.116Z,22.40
2023-03-22T03:53:54.490Z,23.63
2023-03-22T03:56:20.989Z,21.85
2023-03-22T03:58:47.445Z,23.90
2023-03-22T04:01:13.889Z,23.02
2023-03-22T04:03:40.288Z,24.77
2023-03-22T04:06:08.815Z,23.13
2023-03-22T04:08:35.245Z,24.10
2023-03-22T04:11:01.637Z,23.60
2023-03-22T04:13:27.993Z,25.60
2023-03-22T04:15:57.414Z,24.00
2023-03-22T04:18:24.271Z,23.50
2023-03-22T04:20:53.601Z,24.33
2023-03-22T04:23:22.429Z,23.52
2023-03-22T04:25:50.443Z,25.60
2023-03-22T04:28:19.724Z,24.13
2023-03-22T04:30:52.419Z,23.05
2023-03-22T04:33:19.999Z,24.10
2023-03-22T04:35:46.443Z,23.85
2023-03-22T04:38:12.998Z,23.25
2023-03-22T04:40:46.454Z,23.77
2023-03-22T04:43:13.964Z,23.75
2023-03-22T04:45:42.074Z,22.40
2023-03-22T04:48:11.126Z,22.67
2023-03-22T04:50:40.040Z,22.13
2023-03-22T04:53:08.037Z,22.23
2023-03-22T04:55:34.445Z,22.23
2023-03-22T04:58:00.988Z,21.20
2023-03-22T05:00:30.082Z,21.60
2023-03-22T05:02:57.711Z,20.80
2023-03-22T05:05:24.240Z,20.50
2023-03-22T05:07:51.136Z,19.92
2023-03-22T05:10:17.547Z,20.98
2023-03-22T05:12:43.935Z,19.67
2023-03-22T05:15:10.617Z,20.23
2023-03-22T05:17:37.027Z,20.00
2023-03-22T05:20:09.423Z,20.58
2023-03-22T05:22:40.389Z,19.20
2023-03-22T05:25:08.617Z,20.63
2023-03-22T05:27:35.144Z,18.88
2023-03-22T05:30:02.244Z,18.70
2023-03-22T05:32:29.228Z,18.58
2023-03-22T05:34:56.237Z,18.52
2023-03-22T05:37:22.828Z,18.20
2023-03-22T05:39:49.227Z,19.08
2023-03-22T05:42:15.835Z,17.75
2023-03-22T05:44:42.208Z,17.60
2023-03-22T05:47:08.593Z,17.65
2023-03-22T05:49:34.978Z,17.75
2023-03-22T05:52:04.244Z,17.85
2023-03-22T05:54:31.233Z,17.27
2023-03-22T05:56:57.715Z,18.50
2023-03-22T05:59:24.092Z,17.73
2023-03-22T06:01:51.101Z,17.98
2023-03-22T06:04:18.675Z,17.23
2023-03-22T06:06:45.420Z,16.23
2023-03-22T06:09:17.356Z,16.95
2023-03-22T06:11:44.403Z,15.85
2023-03-22T06:14:10.925Z,16.23
2023-03-22T06:16:37.407Z,16.33
2023-03-22T06:19:03.935Z,15.15
2023-03-22T06:21:30.382Z,16.35
2023-03-22T06:23:56.796Z,16.25
2023-03-22T06:26:23.203Z,17.08
2023-03-22T06:28:49.646Z,16.15
2023-03-22T06:31:16.202Z,16.40
2023-03-22T06:33:42.648Z,17.35
2023-03-22T06:36:09.333Z,15.77
2023-03-22T06:38:35.708Z,15.80
2023-03-22T06:41:02.092Z,14.98
2023-03-22T06:43:28.542Z,15.07
2023-03-22T06:45:57.192Z,14.77
2023-03-22T06:48:23.744Z,14.55
2023-03-22T06:50:50.367Z,14.02
2023-03-22T06:53:16.786Z,14.55
2023-03-22T06:55:43.147Z,15.32
2023-03-22T06:58:09.593Z,14.60
2023-03-22T07:00:36.344Z,14.55
2023-03-22T07:03:03.413Z,14.63
2023-03-22T07:05:30.476Z,14.77
2023-03-22T07:07:56.849Z,14.10
2023-03-22T07:10:23.348Z,14.95
2023-03-22T07:12:49.730Z,14.45
2023-03-22T07:15:17.420Z,13.45
2023-03-22T07:17:43.841Z,13.88
2023-03-22T07:20:10.885Z,12.68
2023-03-22T07:22:37.292Z,13.55
2023-03-22T07:25:03.895Z,14.45
2023-03-22T07:27:30.262Z,13.52
2023-03-22T07:29:56.632Z,12.38
2023-03-22T07:32:23.190Z,11.70
2023-03-22T07:34:49.626Z,13.07
2023-03-22T07:37:16.065Z,11.68
2023-03-22T07:39:42.450Z,11.65
2023-03-22T07:42:09.546Z,11.85
2023-03-22T07:44:35.997Z,12.07
2023-03-22T07:47:02.412Z,11.80
2023-03-22T07:49:28.980Z,11.63
2023-03-22T07:51:55.560Z,11.35
2023-03-22T07:54:32.843Z,11.52
2023-03-22T07:57:00.184Z,12.73
2023-03-22T07:59:26.664Z,10.93
2023-03-22T08:01:53.150Z,10.27
2023-03-22T08:04:22.407Z,10.60
2023-03-22T08:06:49.766Z,10.75
2023-03-22T08:09:16.268Z,12.00
2023-03-22T08:11:42.700Z,11.10
2023-03-22T08:14:09.218Z,10.15
2023-03-22T08:16:35.950Z,10.15
2023-03-22T08:19:02.562Z,9.68
2023-03-22T08:21:28.963Z,9.98
2023-03-22T08:23:55.342Z,9.18
2023-03-22T08:26:22.257Z,9.55
2023-03-22T08:28:48.697Z,9.95
2023-03-22T08:31:17.055Z,10.02
2023-03-22T08:33:44.215Z,10.10
2023-03-22T08:36:13.774Z,11.88
2023-03-22T08:38:40.185Z,11.90
2023-03-22T08:41:06.679Z,9.20
2023-03-22T08:43:33.107Z,8.95
2023-03-22T08:45:59.643Z,8.50
2023-03-22T08:48:29.082Z,8.27
2023-03-22T08:50:55.611Z,8.93
2023-03-22T08:53:21.988Z,10.60
2023-03-22T08:55:48.394Z,9.57
2023-03-22T08:58:20.044Z,8.65
2023-03-22T09:00:49.456Z,9.85
2023-03-22T09:03:16.845Z,9.40
2023-03-22T09:05:43.377Z,8.07
2023-03-22T09:08:18.195Z,7.78
2023-03-22T09:10:51.513Z,9.20
2023-03-22T09:13:18.814Z,9.40
2023-03-22T09:15:45.341Z,8.68
2023-03-22T09:18:12.457Z,8.02
2023-03-22T09:20:39.274Z,9.15
2023-03-22T09:23:06.053Z,8.50
2023-03-22T09:25:32.636Z,8.38
2023-03-22T09:27:59.143Z,8.65
2023-03-22T09:30:25.595Z,9.93
2023-03-22T09:32:52.000Z,8.82
2023-03-22T09:35:18.659Z,9.20
2023-03-22T09:37:45.585Z,9.45
2023-03-22T09:40:12.889Z,9.00
2023-03-22T09:42:46.196Z,8.27
2023-03-22T09:45:20.527Z,8.73
2023-03-22T09:47:51.090Z,11.30
2023-03-22T09:50:27.809Z,9.63
2023-03-22T09:52:54.474Z,10.05
2023-03-22T09:55:30.299Z,10.27
2023-03-22T09:58:07.235Z,10.32
2023-03-22T10:00:48.660Z,9.25
2023-03-22T10:03:28.912Z,10.73
2023-03-22T10:05:59.682Z,11.63
2023-03-22T10:08:48.729Z,10.27
2023-03-22T10:11:30.198Z,10.07
2023-03-22T10:14:27.683Z,10.85
2023-03-22T10:16:56.659Z,11.43
2023-03-22T10:19:29.356Z,10.98
2023-03-22T10:21:57.999Z,11.13
2023-03-22T10:24:30.089Z,11.45
2023-03-22T10:26:56.584Z,11.38
2023-03-22T10:29:30.655Z,11.93
2023-03-22T10:32:11.327Z,11.60
2023-03-22T10:34:37.710Z,11.30
2023-03-22T10:37:07.119Z,11.85
2023-03-22T10:39:39.394Z,11.27
2023-03-22T10:42:11.563Z,11.40
2023-03-22T10:45:01.178Z,11.75
2023-03-22T10:47:40.469Z,11.27
2023-03-22T10:50:17.297Z,10.90
2023-03-22T10:52:56.656Z,13.20
2023-03-22T10:55:24.776Z,11.63
2023-03-22T10:58:12.155Z,11.45
2023-03-22T11:00:43.538Z,11.95
2023-03-22T11:03:26.415Z,11.32
2023-03-22T11:06:01.323Z,10.82
2023-03-22T11:08:27.747Z,10.90
2023-03-22T11:10:59.074Z,10.45
2023-03-22T11:13:26.187Z,10.68
2023-03-22T11:15:55.820Z,11.48
2023-03-22T11:18:22.707Z,10.80
2023-03-22T11:21:03.969Z,10.43
2023-03-22T11:23:33.997Z,10.27
2023-03-22T11:26:09.034Z,9.00
2023-03-22T11:28:41.874Z,9.68
2023-03-22T11:31:15.853Z,10.10
2023-03-22T11:34:00.678Z,9.57
2023-03-22T11:36:28.861Z,8.07
2023-03-22T11:39:05.896Z,7.32
2023-03-22T11:41:36.733Z,8.45
2023-03-22T11:44:06.612Z,8.95
2023-03-22T11:46:34.762Z,9.48
2023-03-22T11:49:07.251Z,11.98
2023-03-22T11:51:37.143Z,25.67
2023-03-22T11:54:09.360Z,8.25
2023-03-22T11:56:41.463Z,10.52
2023-03-22T11:59:24.718Z,9.20
2023-03-22T12:01:58.028Z,11.13
2023-03-22T12:04:27.841Z,7.18
2023-03-22T12:06:57.945Z,9.68
2023-03-22T12:09:43.367Z,7.22
2023-03-22T12:12:17.862Z,6.97
2023-03-22T12:14:50.738Z,8.35
2023-03-22T12:17:38.751Z,9.60
2023-03-22T12:20:19.681Z,7.38
2023-03-22T12:22:52.673Z,7.82
2023-03-22T12:25:27.122Z,7.38
2023-03-22T12:27:56.299Z,8.45
2023-03-22T12:30:26.753Z,7.40
2023-03-22T12:32:53.138Z,6.65
2023-03-22T12:35:27.882Z,8.52
2023-03-22T12:37:56.580Z,10.02
2023-03-22T12:40:26.580Z,10.43
2023-03-22T12:43:09.232Z,8.45
2023-03-22T12:45:41.069Z,7.53
2023-03-22T12:48:20.703Z,7.30
2023-03-22T12:50:52.918Z,6.77
2023-03-22T12:53:20.433Z,8.30
2023-03-22T12:55:48.296Z,9.50
2023-03-22T12:58:20.783Z,10.30
2023-03-22T13:01:13.322Z,6.32
2023-03-22T13:03:46.741Z,7.80
2023-03-22T13:06:33.634Z,7.80
2023-03-22T13:09:09.076Z,6.68
2023-03-22T13:11:35.862Z,7.90
2023-03-22T13:14:02.436Z,6.90
2023-03-22T13:16:55.861Z,7.60
2023-03-22T13:19:29.578Z,7.25
2023-03-22T13:22:46.515Z,7.43
2023-03-22T13:25:27.693Z,7.60
2023-03-22T13:28:28.058Z,7.05
2023-03-22T13:30:56.595Z,7.50
2023-03-22T13:33:31.619Z,5.55
2023-03-22T13:36:04.750Z,5.22
2023-03-22T13:38:41.053Z,5.78
2023-03-22T13:41:24.344Z,6.50
2023-03-22T13:43:54.039Z,6.50
2023-03-22T13:46:20.728Z,5.50
2023-03-22T13:48:47.345Z,5.57
2023-03-22T13:51:23.373Z,7.57
2023-03-22T13:54:03.376Z,7.10
2023-03-22T13:56:42.133Z,6.63
2023-03-22T13:59:27.319Z,5.97
2023-03-22T14:02:35.845Z,7.07
2023-03-22T14:05:16.462Z,5.65
2023-03-22T14:07:47.812Z,5.57
2023-03-22T14:10:19.953Z,5.78
2023-03-22T14:12:51.318Z,5.75
2023-03-22T14:15:31.815Z,9.02
2023-03-22T14:18:12.536Z,6.85
2023-03-22T14:20:40.289Z,6.85
